Terminal Aerodrome Forecast
Issued by NWS Albany, NY

Home | Current Version | Previous Version | Text Only | Print | Product List | Glossary On
Versions: 1 2 3 4 5 6 7 8 9 10 11 12 13 14 15 16 17 18 19 20 21 22 23 24 25 26 27 28 29 30
126
FTUS41 KALY 101720
TAFGFL
TAF
KGFL 101720Z 1018/1118 19007KT P6SM VCSH SCT025 OVC040
      TEMPO 1018/1020 4SM -SHSN BKN025
     FM102200 24005KT P6SM BKN035
     FM111500 30010KT P6SM OVC050=

USA.gov is the U.S. government's official web portal to all federal, state and local government web resources and services.